createdAt,value
2022-08-10T00:00:22.581Z,2.45
2022-08-10T00:02:44.947Z,2.35
2022-08-10T00:05:07.363Z,2.88
2022-08-10T00:07:29.636Z,2.53
2022-08-10T00:09:51.895Z,2.80
2022-08-10T00:12:14.206Z,2.20
2022-08-10T00:14:36.541Z,2.80
2022-08-10T00:16:58.776Z,2.17
2022-08-10T00:19:21.032Z,2.20
2022-08-10T00:21:45.918Z,2.38
2022-08-10T00:24:08.304Z,2.53
2022-08-10T00:27:52.032Z,2.60
2022-08-10T00:29:12.889Z,2.47
2022-08-10T00:31:57.672Z,2.58
2022-08-10T00:34:17.565Z,2.30
2022-08-10T00:36:39.838Z,2.50
2022-08-10T00:39:02.120Z,2.53
2022-08-10T00:41:24.332Z,2.30
2022-08-10T00:43:46.560Z,2.22
2022-08-10T00:46:08.850Z,2.67
2022-08-10T00:48:31.742Z,2.92
2022-08-10T00:50:54.013Z,2.38
2022-08-10T00:53:16.267Z,2.92
2022-08-10T00:57:16.969Z,2.13
2022-08-10T00:58:21.647Z,2.25
2022-08-10T01:00:44.202Z,2.45
2022-08-10T01:03:11.026Z,2.25
2022-08-10T01:05:34.917Z,2.08
2022-08-10T01:08:22.221Z,2.28
2022-08-10T01:10:48.377Z,2.20
2022-08-10T01:13:13.910Z,2.40
2022-08-10T01:15:51.306Z,2.15
2022-08-10T01:18:25.019Z,2.40
2022-08-10T01:20:50.235Z,2.38
2022-08-10T01:23:15.573Z,2.40
2022-08-10T01:26:12.072Z,2.25
2022-08-10T01:28:47.250Z,2.35
2022-08-10T01:31:11.861Z,2.08
2022-08-10T01:33:58.811Z,2.22
2022-08-10T01:36:21.099Z,2.22
2022-08-10T01:38:55.141Z,2.13
2022-08-10T01:41:24.518Z,2.40
2022-08-10T01:43:49.730Z,2.38
2022-08-10T01:46:12.873Z,2.30
2022-08-10T01:48:37.409Z,2.40
2022-08-10T01:51:05.438Z,2.28
2022-08-10T01:53:40.877Z,2.60
2022-08-10T01:56:04.463Z,2.50
2022-08-10T01:58:27.849Z,2.08
2022-08-10T02:00:55.244Z,2.35
2022-08-10T02:03:19.167Z,2.55
2022-08-10T02:05:44.243Z,2.58
2022-08-10T02:08:08.732Z,2.13
2022-08-10T02:10:31.778Z,2.65
2022-08-10T02:12:57.871Z,2.38
2022-08-10T02:15:21.070Z,2.60
2022-08-10T02:17:58.126Z,2.72
2022-08-10T02:20:25.014Z,2.67
2022-08-10T02:22:49.973Z,2.40
2022-08-10T02:25:40.613Z,2.28
2022-08-10T02:27:56.536Z,3.00
2022-08-10T02:30:19.405Z,2.60
2022-08-10T02:32:52.959Z,2.40
2022-08-10T02:35:22.442Z,2.47
2022-08-10T02:37:47.714Z,2.90
2022-08-10T02:45:01.237Z,2.90
2022-08-10T02:45:23.853Z,2.20
2022-08-10T02:45:43.638Z,2.50
2022-08-10T02:48:09.357Z,2.47
2022-08-10T02:50:38.524Z,2.97
2022-08-10T02:53:51.662Z,2.80
2022-08-10T02:56:05.869Z,2.90
2022-08-10T02:58:48.356Z,2.70
2022-08-10T03:01:12.807Z,3.20
2022-08-10T03:03:38.373Z,2.90
2022-08-10T03:06:02.108Z,3.00
2022-08-10T03:08:26.532Z,3.20
2022-08-10T03:10:50.052Z,3.07
2022-08-10T03:13:12.969Z,3.07
2022-08-10T03:15:35.888Z,3.10
2022-08-10T03:17:59.201Z,2.90
2022-08-10T03:20:37.155Z,3.00
2022-08-10T03:23:02.263Z,3.30
2022-08-10T03:25:24.978Z,3.07
2022-08-10T03:27:48.429Z,2.67
2022-08-10T03:30:32.622Z,3.20
2022-08-10T03:32:54.134Z,2.77
2022-08-10T03:35:17.451Z,2.57
2022-08-10T03:37:40.460Z,3.27
2022-08-10T03:40:02.767Z,3.00
2022-08-10T03:42:26.450Z,3.13
2022-08-10T03:44:50.607Z,2.73
2022-08-10T03:47:15.944Z,3.00
2022-08-10T03:49:39.237Z,3.10
2022-08-10T03:52:02.154Z,3.23
2022-08-10T03:54:25.136Z,3.20
2022-08-10T03:56:48.026Z,3.37
2022-08-10T03:59:11.553Z,3.10
2022-08-10T04:02:52.871Z,3.20
2022-08-10T04:04:23.263Z,3.43
2022-08-10T04:06:46.889Z,3.50
2022-08-10T04:09:17.180Z,3.30
2022-08-10T04:11:40.774Z,2.90
2022-08-10T04:14:03.659Z,2.83
2022-08-10T04:16:25.942Z,3.20
2022-08-10T04:18:48.213Z,3.67
2022-08-10T04:21:10.462Z,3.27
2022-08-10T04:23:33.962Z,3.27
2022-08-10T04:25:56.509Z,2.97
2022-08-10T04:28:19.930Z,3.30
2022-08-10T04:30:42.412Z,2.93
2022-08-10T04:33:06.149Z,2.83
2022-08-10T04:35:29.730Z,2.60
2022-08-10T04:37:52.449Z,2.70
2022-08-10T04:40:25.269Z,2.73
2022-08-10T04:42:53.145Z,3.00
2022-08-10T04:45:23.760Z,2.90
2022-08-10T04:48:06.042Z,2.57
2022-08-10T04:50:48.911Z,2.87
2022-08-10T04:53:11.260Z,2.60
2022-08-10T04:55:33.509Z,2.43
2022-08-10T04:57:55.766Z,2.57
2022-08-10T05:00:19.415Z,2.77
2022-08-10T05:02:41.829Z,2.43
2022-08-10T05:05:04.348Z,2.70
2022-08-10T05:07:26.710Z,2.47
2022-08-10T05:10:01.861Z,2.65
2022-08-10T05:12:25.762Z,2.42
2022-08-10T05:14:48.013Z,2.50
2022-08-10T05:17:10.283Z,2.35
2022-08-10T05:20:04.988Z,2.47
2022-08-10T05:22:15.123Z,2.63
2022-08-10T05:24:37.600Z,2.45
2022-08-10T05:27:08.366Z,2.30
2022-08-10T05:29:32.565Z,2.13
2022-08-10T05:31:55.164Z,2.38
2022-08-10T05:34:20.335Z,2.00
2022-08-10T05:36:43.809Z,2.22
2022-08-10T05:39:06.228Z,2.30
2022-08-10T05:41:29.356Z,2.20
2022-08-10T05:43:51.688Z,2.15
2022-08-10T05:46:19.329Z,2.10
2022-08-10T05:48:59.606Z,1.90
2022-08-10T05:51:23.277Z,2.15
2022-08-10T05:54:01.838Z,1.80
2022-08-10T05:56:27.731Z,1.90
2022-08-10T05:59:11.477Z,1.85
2022-08-10T06:01:35.014Z,1.90
2022-08-10T06:03:58.637Z,1.70
2022-08-10T06:06:25.009Z,2.05
2022-08-10T06:08:48.709Z,1.88
2022-08-10T06:12:27.062Z,1.80
2022-08-10T06:14:16.716Z,1.40
2022-08-10T06:16:42.921Z,1.88
2022-08-10T06:19:05.376Z,1.83
2022-08-10T06:21:28.329Z,2.30
2022-08-10T06:23:50.798Z,1.58
2022-08-10T06:26:15.679Z,1.92
2022-08-10T06:28:56.027Z,2.05
2022-08-10T06:31:27.098Z,1.92
2022-08-10T06:33:49.606Z,1.83
2022-08-10T06:36:12.180Z,2.15
2022-08-10T06:38:35.184Z,1.73
2022-08-10T06:40:59.242Z,1.85
2022-08-10T06:43:22.558Z,1.73
2022-08-10T06:46:06.978Z,1.95
2022-08-10T06:48:35.302Z,1.80
2022-08-10T06:51:18.166Z,1.50
2022-08-10T06:53:53.646Z,1.40
2022-08-10T06:56:17.859Z,2.00
2022-08-10T06:58:48.076Z,1.70
2022-08-10T07:01:13.932Z,1.70
2022-08-10T07:03:39.168Z,1.75
2022-08-10T07:06:02.134Z,1.80
2022-08-10T07:08:24.849Z,1.75
2022-08-10T07:10:48.240Z,1.80
2022-08-10T07:13:11.563Z,2.10
2022-08-10T07:16:00.024Z,1.67
2022-08-10T07:18:16.767Z,1.52
2022-08-10T07:20:39.294Z,1.90
2022-08-10T07:23:55.455Z,1.75
2022-08-10T07:25:47.200Z,2.00
2022-08-10T07:28:10.388Z,1.85
2022-08-10T07:30:33.608Z,1.60
2022-08-10T07:32:56.265Z,1.80
2022-08-10T07:35:19.418Z,1.80
2022-08-10T07:37:43.040Z,1.42
2022-08-10T07:40:05.971Z,1.50
2022-08-10T07:42:31.184Z,1.58
2022-08-10T07:44:53.758Z,1.42
2022-08-10T07:47:17.928Z,1.70
2022-08-10T07:50:06.211Z,1.50
2022-08-10T07:52:29.172Z,1.48
2022-08-10T07:54:53.113Z,1.70
2022-08-10T07:57:30.689Z,1.58
2022-08-10T07:59:59.925Z,1.55
2022-08-10T08:02:30.857Z,1.52
2022-08-10T08:05:01.445Z,1.60
2022-08-10T08:07:24.089Z,1.70
2022-08-10T08:09:57.828Z,1.80
2022-08-10T08:12:23.842Z,1.50
2022-08-10T08:14:46.430Z,1.70
2022-08-10T08:17:09.641Z,1.50
2022-08-10T08:19:37.881Z,1.60
2022-08-10T08:24:07.235Z,1.40
2022-08-10T08:24:53.420Z,1.35
2022-08-10T08:27:16.891Z,1.30
2022-08-10T08:29:41.761Z,1.35
2022-08-10T08:32:05.024Z,1.40
2022-08-10T08:34:27.732Z,1.58
2022-08-10T08:36:53.916Z,1.23
2022-08-10T08:39:18.328Z,1.50
2022-08-10T08:41:59.457Z,1.40
2022-08-10T08:44:34.851Z,1.00
2022-08-10T08:47:00.521Z,1.58
2022-08-10T08:50:07.690Z,1.60
2022-08-10T08:52:27.284Z,1.27
2022-08-10T08:55:52.318Z,1.75
2022-08-10T08:57:55.993Z,1.35
2022-08-10T09:00:34.218Z,1.33
2022-08-10T09:02:59.226Z,1.50
2022-08-10T09:05:32.329Z,1.33
2022-08-10T09:08:34.798Z,1.17
2022-08-10T09:11:01.347Z,1.33
2022-08-10T09:13:29.332Z,1.40
2022-08-10T09:16:00.029Z,1.38
2022-08-10T09:18:41.836Z,1.00
2022-08-10T09:21:13.995Z,1.10
2022-08-10T09:24:02.198Z,1.20
2022-08-10T09:26:26.649Z,1.30
2022-08-10T09:29:03.661Z,1.10
2022-08-10T09:31:42.117Z,1.00
2022-08-10T09:36:28.809Z,1.05
2022-08-10T09:37:17.974Z,1.08
2022-08-10T09:40:55.946Z,1.00
2022-08-10T09:42:41.457Z,1.33
2022-08-10T09:45:19.960Z,1.20
2022-08-10T09:48:01.761Z,1.10
2022-08-10T09:50:42.907Z,1.38
2022-08-10T09:53:21.554Z,1.00
2022-08-10T09:56:16.934Z,1.27
2022-08-10T09:58:44.216Z,1.10
2022-08-10T10:01:52.881Z,1.08
2022-08-10T10:04:13.019Z,1.23
2022-08-10T10:06:50.898Z,1.10
2022-08-10T10:09:19.192Z,1.20
2022-08-10T10:12:16.852Z,1.23
2022-08-10T10:15:10.602Z,1.30
2022-08-10T10:18:09.149Z,1.23
2022-08-10T10:20:32.162Z,1.20
2022-08-10T10:23:02.289Z,1.05
2022-08-10T10:25:52.567Z,1.02
2022-08-10T10:28:16.366Z,1.10
2022-08-10T10:30:46.357Z,1.35
2022-08-10T10:33:23.126Z,0.85
2022-08-10T10:35:49.983Z,1.55
2022-08-10T10:38:14.291Z,1.00
2022-08-10T10:41:15.688Z,1.20
2022-08-10T10:43:53.506Z,1.25
2022-08-10T10:46:23.119Z,0.80
2022-08-10T10:51:40.659Z,0.88
2022-08-10T10:54:23.278Z,0.80
2022-08-10T10:56:45.822Z,0.90
2022-08-10T10:59:54.043Z,1.15
2022-08-10T11:02:18.289Z,1.00
2022-08-10T11:04:43.727Z,1.05
2022-08-10T11:07:10.468Z,0.80
2022-08-10T11:10:03.782Z,0.70
2022-08-10T11:12:27.462Z,0.70
2022-08-10T11:14:56.107Z,1.10
2022-08-10T11:17:21.037Z,1.00
2022-08-10T11:20:02.123Z,1.10
2022-08-10T11:22:36.959Z,1.02
2022-08-10T11:25:20.182Z,1.08
2022-08-10T11:27:48.820Z,1.58
2022-08-10T11:30:15.808Z,1.05
2022-08-10T11:32:43.697Z,0.50
2022-08-10T11:35:19.054Z,0.85
2022-08-10T11:38:32.817Z,0.90
2022-08-10T11:40:44.150Z,0.80
2022-08-10T11:43:12.536Z,0.88
2022-08-10T11:45:36.815Z,0.90
2022-08-10T11:48:53.558Z,1.05
2022-08-10T11:51:08.050Z,0.70
2022-08-10T11:53:39.310Z,0.70
2022-08-10T11:56:03.611Z,1.00
2022-08-10T11:58:54.945Z,0.90
2022-08-10T12:01:20.429Z,0.80
2022-08-10T12:03:44.067Z,0.98
2022-08-10T12:06:13.389Z,0.70
2022-08-10T12:10:06.365Z,0.90
2022-08-10T12:11:25.446Z,0.85
2022-08-10T12:14:17.796Z,0.85
2022-08-10T12:16:37.873Z,0.98
2022-08-10T12:19:11.360Z,0.93
2022-08-10T12:21:45.812Z,0.93
2022-08-10T12:24:14.282Z,0.90
2022-08-10T12:26:50.309Z,1.02
2022-08-10T12:29:23.557Z,0.73
2022-08-10T12:31:52.386Z,0.75
2022-08-10T12:34:14.662Z,0.90
2022-08-10T12:36:45.669Z,0.90
2022-08-10T12:39:28.059Z,1.08
2022-08-10T12:41:53.939Z,1.00
2022-08-10T12:44:41.340Z,0.70
2022-08-10T12:47:14.112Z,0.80
2022-08-10T12:49:36.741Z,0.73
2022-08-10T12:51:59.028Z,1.00
2022-08-10T12:54:32.005Z,0.88
2022-08-10T12:56:55.329Z,1.10
2022-08-10T12:59:18.844Z,0.90
2022-08-10T13:02:10.386Z,0.80
2022-08-10T13:04:34.329Z,0.80
2022-08-10T13:06:58.229Z,0.75
2022-08-10T13:09:26.899Z,1.15
2022-08-10T13:12:34.890Z,0.80
2022-08-10T13:14:37.584Z,0.80
2022-08-10T13:17:00.981Z,0.80
2022-08-10T13:19:25.177Z,0.70
2022-08-10T13:21:48.388Z,1.05
2022-08-10T13:24:12.350Z,0.90
2022-08-10T13:26:37.289Z,0.95
2022-08-10T13:29:01.943Z,0.90
2022-08-10T13:32:04.286Z,0.88
2022-08-10T13:34:43.123Z,1.00
2022-08-10T13:37:11.058Z,0.90
2022-08-10T13:39:57.746Z,0.80
2022-08-10T13:42:32.210Z,0.88
2022-08-10T13:45:09.408Z,1.00
2022-08-10T13:47:42.414Z,0.88
2022-08-10T13:50:14.551Z,0.80
2022-08-10T13:52:38.114Z,0.82
2022-08-10T13:55:01.250Z,0.93
2022-08-10T13:57:28.289Z,0.93
2022-08-10T14:00:34.359Z,1.00
2022-08-10T14:02:59.381Z,0.93
2022-08-10T14:05:30.581Z,0.85
2022-08-10T14:08:00.389Z,0.80
2022-08-10T14:11:09.018Z,1.10
2022-08-10T14:13:06.986Z,0.85
2022-08-10T14:15:30.909Z,0.90
2022-08-10T14:17:55.933Z,1.00
2022-08-10T14:20:21.723Z,1.02
2022-08-10T14:22:44.644Z,0.77
2022-08-10T14:25:16.580Z,1.10
2022-08-10T14:28:03.199Z,1.08
2022-08-10T14:30:23.662Z,0.80
2022-08-10T14:32:56.439Z,0.93
2022-08-10T14:36:19.267Z,0.90
2022-08-10T14:38:07.098Z,0.90
2022-08-10T14:40:40.864Z,0.88
2022-08-10T14:43:07.275Z,0.82
2022-08-10T14:45:33.711Z,0.90
2022-08-10T14:48:17.226Z,0.80
2022-08-10T14:50:55.453Z,0.80
2022-08-10T14:53:19.936Z,1.02
2022-08-10T14:55:58.895Z,0.90
2022-08-10T14:58:24.826Z,0.70
2022-08-10T15:00:49.560Z,0.82
2022-08-10T15:03:58.367Z,0.90
2022-08-10T15:05:59.135Z,0.68
2022-08-10T15:08:26.212Z,0.75
2022-08-10T15:10:51.137Z,0.73
2022-08-10T15:13:34.506Z,0.93
2022-08-10T15:16:12.405Z,0.82
2022-08-10T15:18:36.433Z,0.88
2022-08-10T15:21:03.404Z,1.00
2022-08-10T15:24:04.793Z,0.70
2022-08-10T15:26:29.214Z,1.00
2022-08-10T15:29:22.406Z,0.95
2022-08-10T15:32:03.967Z,0.70
2022-08-10T15:34:47.287Z,1.10
2022-08-10T15:37:39.628Z,1.10
2022-08-10T15:40:25.090Z,1.25
2022-08-10T15:42:53.065Z,0.80
2022-08-10T15:45:17.926Z,1.20
2022-08-10T15:47:46.073Z,0.85
2022-08-10T15:50:26.219Z,0.85
2022-08-10T15:53:01.855Z,1.23
2022-08-10T15:55:43.418Z,1.20
2022-08-10T15:58:10.541Z,1.35
2022-08-10T16:00:34.170Z,0.90
2022-08-10T16:02:58.705Z,1.10
2022-08-10T16:06:00.266Z,0.88
2022-08-10T16:08:24.983Z,1.00
2022-08-10T16:10:53.292Z,1.20
2022-08-10T16:14:00.849Z,1.38
2022-08-10T16:16:01.778Z,1.15
2022-08-10T16:18:31.777Z,1.30
2022-08-10T16:20:56.669Z,1.10
2022-08-10T16:23:20.415Z,1.08
2022-08-10T16:25:52.731Z,1.25
2022-08-10T16:28:24.198Z,1.50
2022-08-10T16:30:48.474Z,1.25
2022-08-10T16:33:12.570Z,1.20
2022-08-10T16:35:36.924Z,1.15
2022-08-10T16:38:00.009Z,1.25
2022-08-10T16:40:25.978Z,1.00
2022-08-10T16:42:49.321Z,0.82
2022-08-10T16:45:13.943Z,1.15
2022-08-10T16:47:47.845Z,1.10
2022-08-10T16:50:11.161Z,1.02
2022-08-10T16:52:34.719Z,1.17
2022-08-10T16:55:16.988Z,1.23
2022-08-10T16:57:46.203Z,1.20
2022-08-10T17:00:12.445Z,1.00
2022-08-10T17:02:35.312Z,1.08
2022-08-10T17:04:58.449Z,0.85
2022-08-10T17:07:25.026Z,1.10
2022-08-10T17:09:53.425Z,1.23
2022-08-10T17:12:17.404Z,0.82
2022-08-10T17:14:43.371Z,1.02
2022-08-10T17:17:08.418Z,1.02
2022-08-10T17:19:35.813Z,1.13
2022-08-10T17:21:59.559Z,1.40
2022-08-10T17:24:24.312Z,1.17
2022-08-10T17:26:47.153Z,1.20
2022-08-10T17:29:50.502Z,1.13
2022-08-10T17:31:57.323Z,0.80
2022-08-10T17:34:24.293Z,1.02
2022-08-10T17:36:48.242Z,1.10
2022-08-10T17:39:12.693Z,1.17
2022-08-10T17:41:36.131Z,1.10
2022-08-10T17:44:03.512Z,1.00
2022-08-10T17:46:26.664Z,1.10
2022-08-10T17:48:52.484Z,1.40
2022-08-10T17:51:17.381Z,1.05
2022-08-10T17:53:40.949Z,1.30
2022-08-10T17:56:03.628Z,1.10
2022-08-10T17:58:27.482Z,0.90
2022-08-10T18:00:51.101Z,1.40
2022-08-10T18:03:25.172Z,1.73
2022-08-10T18:05:56.236Z,0.90
2022-08-10T18:08:19.567Z,1.10
2022-08-10T18:10:45.843Z,1.35
2022-08-10T18:13:08.866Z,1.10
2022-08-10T18:15:33.817Z,1.23
2022-08-10T18:17:59.897Z,1.42
2022-08-10T18:20:28.222Z,1.20
2022-08-10T18:22:52.050Z,0.90
2022-08-10T18:25:23.020Z,1.17
2022-08-10T18:28:01.191Z,1.08
2022-08-10T18:30:29.566Z,1.13
2022-08-10T18:32:59.095Z,1.20
2022-08-10T18:35:24.126Z,1.10
2022-08-10T18:37:58.380Z,1.20
2022-08-10T18:40:23.445Z,1.30
2022-08-10T18:42:59.285Z,1.05
2022-08-10T18:45:26.598Z,1.20
2022-08-10T18:48:01.319Z,1.20
2022-08-10T18:50:27.374Z,0.90
2022-08-10T18:52:52.764Z,1.48
2022-08-10T18:55:23.247Z,1.08
2022-08-10T18:58:00.776Z,1.40
2022-08-10T19:00:26.277Z,0.90
2022-08-10T19:03:07.214Z,1.45
2022-08-10T19:05:53.175Z,1.20
2022-08-10T19:08:30.475Z,1.38
2022-08-10T19:10:57.063Z,1.20
2022-08-10T19:13:22.543Z,1.10
2022-08-10T19:16:01.716Z,1.38
2022-08-10T19:18:35.443Z,1.10
2022-08-10T19:21:17.231Z,1.13
2022-08-10T19:23:55.938Z,1.20
2022-08-10T19:26:43.902Z,1.30
2022-08-10T19:30:10.142Z,1.27
2022-08-10T19:32:14.849Z,1.40
2022-08-10T19:34:51.252Z,1.13
2022-08-10T19:37:33.034Z,1.20
2022-08-10T19:40:13.143Z,1.65
2022-08-10T19:42:38.845Z,1.30
2022-08-10T19:46:01.031Z,1.15
2022-08-10T19:48:09.138Z,1.20
2022-08-10T19:50:31.535Z,1.15
2022-08-10T19:52:56.812Z,1.15
2022-08-10T19:55:26.077Z,1.35
2022-08-10T19:58:01.826Z,1.45
2022-08-10T20:00:29.313Z,1.33
2022-08-10T20:03:12.433Z,1.60
2022-08-10T20:05:38.792Z,1.45
2022-08-10T20:08:08.324Z,1.42
2022-08-10T20:10:38.047Z,1.42
2022-08-10T20:13:09.560Z,1.67
2022-08-10T20:15:42.211Z,1.50
2022-08-10T20:18:13.936Z,1.20
2022-08-10T20:20:46.415Z,1.70
2022-08-10T20:23:15.062Z,1.30
2022-08-10T20:25:37.540Z,1.88
2022-08-10T20:28:03.007Z,1.38
2022-08-10T20:30:29.894Z,1.90
2022-08-10T20:32:52.288Z,1.58
2022-08-10T20:35:19.341Z,1.67
2022-08-10T20:38:03.806Z,1.52
2022-08-10T20:40:34.331Z,1.25
2022-08-10T20:43:15.483Z,1.65
2022-08-10T20:46:05.118Z,1.63
2022-08-10T20:48:32.814Z,1.35
2022-08-10T20:51:00.605Z,1.70
2022-08-10T20:53:25.437Z,1.63
2022-08-10T20:56:06.653Z,1.73
2022-08-10T20:58:35.262Z,1.67
2022-08-10T21:01:00.598Z,1.77
2022-08-10T21:03:31.362Z,1.52
2022-08-10T21:06:35.920Z,1.80
2022-08-10T21:09:04.858Z,2.08
2022-08-10T21:11:33.284Z,1.70
2022-08-10T21:14:06.464Z,1.85
2022-08-10T21:16:47.605Z,1.42
2022-08-10T21:19:09.997Z,2.00
2022-08-10T21:21:41.218Z,1.67
2022-08-10T21:24:07.005Z,1.88
2022-08-10T21:26:53.421Z,1.85
2022-08-10T21:29:21.292Z,1.70
2022-08-10T21:32:02.781Z,2.10
2022-08-10T21:37:34.183Z,1.90
2022-08-10T21:40:05.350Z,1.92
2022-08-10T21:43:08.756Z,1.70
2022-08-10T21:46:08.644Z,1.90
2022-08-10T21:49:02.510Z,1.63
2022-08-10T21:52:01.635Z,1.88
2022-08-10T21:54:53.362Z,1.80
2022-08-10T21:57:43.576Z,1.80
2022-08-10T22:00:26.903Z,1.92
2022-08-10T22:03:11.933Z,1.98
2022-08-10T22:05:54.854Z,2.30
2022-08-10T22:08:37.804Z,1.98
2022-08-10T22:11:21.572Z,1.58
2022-08-10T22:14:04.919Z,1.80
2022-08-10T22:16:56.062Z,2.20
2022-08-10T22:19:42.114Z,2.00
2022-08-10T22:22:35.133Z,2.40
2022-08-10T22:25:34.292Z,1.92
2022-08-10T22:28:17.916Z,2.00
2022-08-10T22:31:24.823Z,1.85
2022-08-10T22:31:29.975Z,2.20
2022-08-10T22:34:12.365Z,1.75
2022-08-10T22:37:05.650Z,2.10
2022-08-10T22:40:11.314Z,1.95
2022-08-10T22:43:10.769Z,2.20
2022-08-10T22:45:53.188Z,1.88
2022-08-10T22:48:34.643Z,2.53
2022-08-10T22:50:58.522Z,2.05
2022-08-10T22:53:25.738Z,2.17
2022-08-10T22:56:13.705Z,2.10
2022-08-10T22:58:39.161Z,1.90
2022-08-10T23:01:36.710Z,2.00
2022-08-10T23:04:02.004Z,1.90
2022-08-10T23:06:27.496Z,2.07
2022-08-10T23:08:52.174Z,2.20
2022-08-10T23:11:21.175Z,1.97
2022-08-10T23:13:45.280Z,2.30
2022-08-10T23:16:40.871Z,2.28
2022-08-10T23:19:12.290Z,2.53
2022-08-10T23:22:02.818Z,2.23
2022-08-10T23:24:27.820Z,2.10
2022-08-10T23:26:53.366Z,2.60
2022-08-10T23:29:16.488Z,2.30
2022-08-10T23:31:58.265Z,3.00
2022-08-10T23:34:27.286Z,2.20
2022-08-10T23:36:50.903Z,2.40
2022-08-10T23:39:26.416Z,2.10
2022-08-10T23:41:54.683Z,2.67
2022-08-10T23:44:19.762Z,2.60
2022-08-10T23:46:44.473Z,2.40
2022-08-10T23:49:07.328Z,2.40
2022-08-10T23:51:55.414Z,2.20
2022-08-10T23:54:19.587Z,2.40
2022-08-10T23:56:49.328Z,2.30
2022-08-10T23:59:12.814Z,2.50
